Time;durP1;ratioP1;P1;durP2;ratioP2;P2;SDS_P1;SDS_P2;PMS_P1;PMS_P2;Temp;Humidity;BMP_temperature;BMP_pressure;BME280_temperature;BME280_humidity;BME280_pressure;Samples;Min_cycle;Max_cycle;Signal;HPM_P1;HPM_P2
2023/05/04 00:00:32;;;;;;;10.88;4.97;;;;;;;;;;5085546;27;20043;-75
2023/05/04 00:02:58;;;;;;;9.68;4.65;;;;;;;;;;5086172;27;20044;-74
2023/05/04 00:05:24;;;;;;;15.40;5.00;;;;;;;;;;5084263;27;20043;-74
2023/05/04 00:07:51;;;;;;;11.98;4.80;;;;;;;;;;5084735;27;20050;-74
2023/05/04 00:10:17;;;;;;;7.72;5.07;;;;;;;;;;5090347;27;20067;-74
2023/05/04 00:12:45;;;;;;;10.70;4.97;;;;;;;;;;5088283;27;20055;-74
2023/05/04 00:15:11;;;;;;;10.48;4.88;;;;;;;;;;5087940;27;20051;-74
2023/05/04 00:17:38;;;;;;;10.27;5.15;;;;;;;;;;5066267;27;21920;-74
2023/05/04 00:20:05;;;;;;;11.65;4.93;;;;;;;;;;5073055;27;20093;-74
2023/05/04 00:22:31;;;;;;;12.75;5.72;;;;;;;;;;5082993;27;20059;-74
2023/05/04 00:24:57;;;;;;;11.25;5.43;;;;;;;;;;5085130;27;20051;-74
2023/05/04 00:27:23;;;;;;;8.82;4.53;;;;;;;;;;5073696;27;20127;-74
2023/05/04 00:29:49;;;;;;;12.27;5.00;;;;;;;;;;5080539;27;20167;-74
2023/05/04 00:32:15;;;;;;;6.25;4.65;;;;;;;;;;5069342;27;21708;-74
2023/05/04 00:34:41;;;;;;;11.38;4.93;;;;;;;;;;5071713;27;20063;-74
2023/05/04 00:37:07;;;;;;;11.75;5.35;;;;;;;;;;5077767;27;20047;-74
2023/05/04 00:39:36;;;;;;;10.82;4.80;;;;;;;;;;5074895;27;20797;-74
2023/05/04 00:42:02;;;;;;;14.02;5.65;;;;;;;;;;5088424;27;20853;-74
2023/05/04 00:44:28;;;;;;;8.85;5.15;;;;;;;;;;5089081;27;20078;-74
2023/05/04 00:46:55;;;;;;;8.65;4.97;;;;;;;;;;5091303;27;20039;-74
2023/05/04 00:49:21;;;;;;;14.70;5.88;;;;;;;;;;5064222;27;20041;-74
2023/05/04 00:51:48;;;;;;;13.30;5.25;;;;;;;;;;5089844;27;22066;-74
2023/05/04 00:54:18;;;;;;;11.52;4.93;;;;;;;;;;5085616;27;20128;-74
2023/05/04 00:56:45;;;;;;;11.07;5.35;;;;;;;;;;5085313;27;20522;-74
2023/05/04 00:59:12;;;;;;;13.57;5.35;;;;;;;;;;5065416;27;20039;-74
2023/05/04 01:01:39;;;;;;;10.93;5.18;;;;;;;;;;5087876;27;20043;-74
2023/05/04 01:04:05;;;;;;;12.80;5.30;;;;;;;;;;5087713;27;20471;-73
2023/05/04 01:06:31;;;;;;;10.50;5.75;;;;;;;;;;5098150;27;20043;-73
2023/05/04 01:09:00;;;;;;;10.32;5.30;;;;;;;;;;5091152;27;20931;-73
2023/05/04 01:11:35;;;;;;;10.30;5.13;;;;;;;;;;5089705;27;20994;-74
2023/05/04 01:14:01;;;;;;;9.05;4.97;;;;;;;;;;5087969;27;20094;-74
2023/05/04 01:16:27;;;;;;;20.42;5.57;;;;;;;;;;5068402;27;20051;-73
2023/05/04 01:18:54;;;;;;;9.73;4.63;;;;;;;;;;5087904;27;20065;-73
2023/05/04 01:21:20;;;;;;;8.93;5.22;;;;;;;;;;5065043;27;20060;-73
2023/05/04 01:23:46;;;;;;;11.70;5.55;;;;;;;;;;5087107;27;20058;-73
2023/05/04 01:26:29;;;;;;;11.00;5.10;;;;;;;;;;5090438;27;20040;-73
2023/05/04 01:29:11;;;;;;;12.63;5.50;;;;;;;;;;5091026;27;20106;-74
2023/05/04 01:31:38;;;;;;;11.38;5.22;;;;;;;;;;5067127;27;20044;-73
2023/05/04 01:34:04;;;;;;;11.27;5.65;;;;;;;;;;5066336;27;20143;-73
2023/05/04 01:36:31;;;;;;;7.97;5.20;;;;;;;;;;5089931;27;20044;-73
2023/05/04 01:38:58;;;;;;;10.40;5.13;;;;;;;;;;5089383;27;20054;-73
2023/05/04 01:41:25;;;;;;;14.85;5.22;;;;;;;;;;5093271;27;20035;-73
2023/05/04 01:43:53;;;;;;;9.82;5.80;;;;;;;;;;5090791;27;20059;-74
2023/05/04 01:46:19;;;;;;;11.55;5.65;;;;;;;;;;5088235;27;20090;-74
2023/05/04 01:48:45;;;;;;;11.75;5.70;;;;;;;;;;5089273;27;20124;-73
2023/05/04 01:51:11;;;;;;;11.20;5.57;;;;;;;;;;5086150;27;20057;-73
2023/05/04 01:53:37;;;;;;;12.63;5.47;;;;;;;;;;5085167;27;20095;-74
2023/05/04 01:56:03;;;;;;;13.43;5.88;;;;;;;;;;5082528;27;20069;-73
2023/05/04 01:58:30;;;;;;;12.20;6.53;;;;;;;;;;5077233;27;20042;-73
2023/05/04 02:00:58;;;;;;;11.00;6.45;;;;;;;;;;5084717;27;20151;-73
2023/05/04 02:03:24;;;;;;;12.10;6.88;;;;;;;;;;5084472;27;20059;-73
2023/05/04 02:05:50;;;;;;;10.98;6.53;;;;;;;;;;5083761;27;20054;-73
2023/05/04 02:08:17;;;;;;;14.50;6.28;;;;;;;;;;5070302;27;20104;-73
2023/05/04 02:10:43;;;;;;;14.65;6.20;;;;;;;;;;5076496;27;20846;-73
2023/05/04 02:13:09;;;;;;;12.73;6.88;;;;;;;;;;5084803;27;20054;-73
2023/05/04 02:15:35;;;;;;;11.38;6.85;;;;;;;;;;5081777;27;20043;-73
2023/05/04 02:18:01;;;;;;;14.45;6.93;;;;;;;;;;5086151;27;20035;-73
2023/05/04 02:20:27;;;;;;;12.18;6.90;;;;;;;;;;5083504;27;20044;-73
2023/05/04 02:22:53;;;;;;;8.68;6.35;;;;;;;;;;5086774;27;20043;-73
2023/05/04 02:25:19;;;;;;;15.30;7.35;;;;;;;;;;5087026;27;20147;-74
2023/05/04 02:27:45;;;;;;;11.18;6.60;;;;;;;;;;5059506;27;21104;-74
2023/05/04 02:30:12;;;;;;;14.55;6.50;;;;;;;;;;5073085;27;20375;-73
2023/05/04 02:32:38;;;;;;;13.48;6.70;;;;;;;;;;5087014;27;20775;-73
2023/05/04 02:35:04;;;;;;;16.00;6.47;;;;;;;;;;5080954;27;20050;-74
2023/05/04 02:37:30;;;;;;;15.88;6.40;;;;;;;;;;5081272;27;20051;-74
2023/05/04 02:39:56;;;;;;;9.10;5.97;;;;;;;;;;5080221;27;20055;-73
2023/05/04 02:42:22;;;;;;;16.15;6.97;;;;;;;;;;5082938;27;20410;-73
2023/05/04 02:44:48;;;;;;;10.27;6.82;;;;;;;;;;5084097;27;20043;-74
2023/05/04 02:47:14;;;;;;;15.48;7.32;;;;;;;;;;5087573;27;20039;-73
2023/05/04 02:49:41;;;;;;;12.82;6.63;;;;;;;;;;5062194;27;20067;-74
2023/05/04 02:52:07;;;;;;;12.25;6.80;;;;;;;;;;5082093;27;20039;-74
2023/05/04 02:54:33;;;;;;;14.73;7.53;;;;;;;;;;5084886;27;20047;-74
2023/05/04 02:56:59;;;;;;;12.07;7.30;;;;;;;;;;5084648;27;20044;-73
2023/05/04 02:59:25;;;;;;;10.38;7.20;;;;;;;;;;5083544;27;20061;-74
2023/05/04 03:01:51;;;;;;;12.80;6.85;;;;;;;;;;5087288;27;20043;-73
2023/05/04 03:04:17;;;;;;;11.60;6.88;;;;;;;;;;5085949;27;20067;-74
2023/05/04 03:06:43;;;;;;;9.95;6.82;;;;;;;;;;5088009;27;20107;-74
2023/05/04 03:09:10;;;;;;;16.33;7.43;;;;;;;;;;5061650;27;20081;-74
2023/05/04 03:11:36;;;;;;;12.20;7.47;;;;;;;;;;5082959;27;20059;-74
2023/05/04 03:14:02;;;;;;;13.50;7.38;;;;;;;;;;5073599;27;20039;-74
2023/05/04 03:16:28;;;;;;;12.57;7.72;;;;;;;;;;5065843;27;20042;-74
2023/05/04 03:18:54;;;;;;;13.48;7.95;;;;;;;;;;5077747;27;20043;-74
2023/05/04 03:21:21;;;;;;;15.45;7.72;;;;;;;;;;5094465;27;20523;-74
2023/05/04 03:23:47;;;;;;;16.63;7.70;;;;;;;;;;5069639;27;20056;-74
2023/05/04 03:26:13;;;;;;;18.75;7.90;;;;;;;;;;5070692;27;20188;-74
2023/05/04 03:28:39;;;;;;;14.77;8.20;;;;;;;;;;5072278;27;21929;-74
2023/05/04 03:31:05;;;;;;;14.25;7.88;;;;;;;;;;5049625;28;20162;-74
2023/05/04 03:33:31;;;;;;;15.35;8.13;;;;;;;;;;5069380;27;20039;-74
2023/05/04 03:35:57;;;;;;;20.10;8.20;;;;;;;;;;5069157;27;20088;-74
2023/05/04 03:38:23;;;;;;;14.30;7.25;;;;;;;;;;5066779;28;20035;-74
2023/05/04 03:40:49;;;;;;;17.10;7.22;;;;;;;;;;5068353;28;20047;-74
2023/05/04 03:43:15;;;;;;;12.55;7.40;;;;;;;;;;5053769;28;20135;-74
2023/05/04 03:45:41;;;;;;;13.98;8.50;;;;;;;;;;5073505;27;20499;-73
2023/05/04 03:48:07;;;;;;;14.10;7.45;;;;;;;;;;5077177;27;20087;-74
2023/05/04 03:50:33;;;;;;;15.25;7.68;;;;;;;;;;5074842;27;20482;-73
2023/05/04 03:52:59;;;;;;;14.63;7.25;;;;;;;;;;5067940;27;20058;-74
2023/05/04 03:55:26;;;;;;;14.75;7.78;;;;;;;;;;5076831;27;20044;-73
2023/05/04 03:57:52;;;;;;;11.18;6.90;;;;;;;;;;5084999;27;20071;-74
2023/05/04 04:00:18;;;;;;;12.30;7.45;;;;;;;;;;5040464;28;20040;-74
2023/05/04 04:02:44;;;;;;;18.92;8.00;;;;;;;;;;5078582;27;20058;-74
2023/05/04 04:05:10;;;;;;;16.00;8.48;;;;;;;;;;5073262;27;20040;-74
2023/05/04 04:07:36;;;;;;;19.33;7.28;;;;;;;;;;5071221;27;20416;-74
2023/05/04 04:10:02;;;;;;;16.15;7.68;;;;;;;;;;5077705;27;20039;-73
2023/05/04 04:12:28;;;;;;;16.63;8.32;;;;;;;;;;5076509;27;20036;-73
2023/05/04 04:14:54;;;;;;;12.32;8.02;;;;;;;;;;5079775;27;20047;-73
2023/05/04 04:17:20;;;;;;;17.83;7.72;;;;;;;;;;5074972;27;20108;-74
2023/05/04 04:19:46;;;;;;;10.23;7.35;;;;;;;;;;5080136;27;20074;-73
2023/05/04 04:22:13;;;;;;;15.63;6.95;;;;;;;;;;5075137;27;20280;-73
2023/05/04 04:24:40;;;;;;;15.40;7.68;;;;;;;;;;5077249;27;20047;-73
2023/05/04 04:27:06;;;;;;;19.17;8.38;;;;;;;;;;5075780;27;20054;-73
2023/05/04 04:29:34;;;;;;;13.70;7.47;;;;;;;;;;5078469;27;20050;-73
2023/05/04 04:32:00;;;;;;;17.50;8.23;;;;;;;;;;5074620;27;20144;-73
2023/05/04 04:34:26;;;;;;;17.42;7.70;;;;;;;;;;5076609;27;20050;-73
2023/05/04 04:36:52;;;;;;;13.10;7.20;;;;;;;;;;5076973;27;21621;-73
2023/05/04 04:39:18;;;;;;;12.02;7.38;;;;;;;;;;5077378;27;20054;-73
2023/05/04 04:41:44;;;;;;;13.95;7.75;;;;;;;;;;5080647;27;20039;-73
2023/05/04 04:44:11;;;;;;;10.30;6.80;;;;;;;;;;5088307;27;20047;-73
2023/05/04 04:46:37;;;;;;;13.13;7.20;;;;;;;;;;5081567;27;20676;-72
2023/05/04 04:49:03;;;;;;;17.70;7.63;;;;;;;;;;5085895;27;21960;-73
2023/05/04 04:51:29;;;;;;;13.13;6.85;;;;;;;;;;5085323;27;20118;-73
2023/05/04 04:53:56;;;;;;;11.07;7.38;;;;;;;;;;5086466;27;20042;-73
2023/05/04 04:56:22;;;;;;;18.52;7.40;;;;;;;;;;5085956;27;20043;-74
2023/05/04 04:58:48;;;;;;;11.93;6.93;;;;;;;;;;5080071;27;20066;-73
2023/05/04 05:01:16;;;;;;;15.68;7.35;;;;;;;;;;5052932;27;20043;-73
2023/05/04 05:03:45;;;;;;;13.07;7.65;;;;;;;;;;5076739;27;20054;-73
2023/05/04 05:06:12;;;;;;;16.83;7.13;;;;;;;;;;5080192;27;20059;-73
2023/05/04 05:08:39;;;;;;;15.07;6.90;;;;;;;;;;5078566;27;20851;-73
2023/05/04 05:11:05;;;;;;;10.43;6.53;;;;;;;;;;5080334;27;21089;-73
2023/05/04 05:13:31;;;;;;;13.40;6.95;;;;;;;;;;5077089;27;20103;-73
2023/05/04 05:15:57;;;;;;;19.58;7.35;;;;;;;;;;5083618;27;21106;-73
2023/05/04 05:18:23;;;;;;;14.65;7.00;;;;;;;;;;5081678;27;20609;-73
2023/05/04 05:20:50;;;;;;;14.23;6.60;;;;;;;;;;5080157;27;20070;-73
2023/05/04 05:23:16;;;;;;;14.13;7.03;;;;;;;;;;5071621;27;20062;-73
2023/05/04 05:25:43;;;;;;;12.85;6.03;;;;;;;;;;5080760;27;20130;-73
2023/05/04 05:28:10;;;;;;;14.50;7.68;;;;;;;;;;5076013;27;21854;-73
2023/05/04 05:30:36;;;;;;;17.27;7.55;;;;;;;;;;5080738;27;20491;-73
2023/05/04 05:33:03;;;;;;;11.52;6.50;;;;;;;;;;5076908;27;20054;-73
2023/05/04 05:35:30;;;;;;;14.93;7.18;;;;;;;;;;5081577;27;20051;-73
2023/05/04 05:37:56;;;;;;;13.18;7.60;;;;;;;;;;5078535;27;20036;-72
2023/05/04 05:40:22;;;;;;;11.68;6.78;;;;;;;;;;5081159;27;20042;-73
2023/05/04 05:42:48;;;;;;;11.68;6.25;;;;;;;;;;5077485;27;20055;-73
2023/05/04 05:45:14;;;;;;;13.40;6.57;;;;;;;;;;5080958;27;20043;-73
2023/05/04 05:47:40;;;;;;;18.35;7.13;;;;;;;;;;5085466;27;20047;-73
2023/05/04 05:50:07;;;;;;;13.40;7.10;;;;;;;;;;5077481;27;20039;-73
2023/05/04 05:52:33;;;;;;;15.40;7.32;;;;;;;;;;5075242;27;20046;-73
2023/05/04 05:54:59;;;;;;;11.50;6.20;;;;;;;;;;5073313;27;20131;-73
2023/05/04 05:57:26;;;;;;;15.40;7.10;;;;;;;;;;5055870;27;20043;-73
2023/05/04 05:59:52;;;;;;;18.45;6.35;;;;;;;;;;5076201;27;20727;-73
2023/05/04 06:02:18;;;;;;;16.13;6.68;;;;;;;;;;5081436;27;20058;-73
2023/05/04 06:04:44;;;;;;;14.77;6.55;;;;;;;;;;5078455;27;20059;-72
2023/05/04 06:07:12;;;;;;;13.30;6.47;;;;;;;;;;5075168;27;20051;-73
2023/05/04 06:09:38;;;;;;;12.98;6.63;;;;;;;;;;5077451;27;20161;-72
2023/05/04 06:12:06;;;;;;;14.68;6.88;;;;;;;;;;5077990;27;20139;-72
2023/05/04 06:14:32;;;;;;;12.13;7.00;;;;;;;;;;5053656;27;20097;-72
2023/05/04 06:16:58;;;;;;;17.95;6.50;;;;;;;;;;5084926;27;20092;-72
2023/05/04 06:19:25;;;;;;;16.63;6.95;;;;;;;;;;5079685;27;20039;-73
2023/05/04 06:21:51;;;;;;;13.93;6.45;;;;;;;;;;5078727;27;20056;-73
2023/05/04 06:24:20;;;;;;;18.48;6.30;;;;;;;;;;5079212;27;20043;-73
2023/05/04 06:26:46;;;;;;;13.23;6.43;;;;;;;;;;5069075;27;20047;-74
2023/05/04 06:29:12;;;;;;;13.32;6.57;;;;;;;;;;5076532;27;20135;-74
2023/05/04 06:31:38;;;;;;;12.98;6.43;;;;;;;;;;5081364;27;20388;-74
2023/05/04 06:34:04;;;;;;;17.42;8.00;;;;;;;;;;5072011;27;20207;-72
2023/05/04 06:36:30;;;;;;;14.98;6.15;;;;;;;;;;5065639;27;20040;-72
2023/05/04 06:38:57;;;;;;;12.02;6.82;;;;;;;;;;5085729;27;20135;-72
2023/05/04 06:41:23;;;;;;;16.45;7.88;;;;;;;;;;5087671;27;20126;-73
2023/05/04 06:43:49;;;;;;;13.43;6.57;;;;;;;;;;5086927;27;20075;-73
2023/05/04 06:46:16;;;;;;;18.55;6.68;;;;;;;;;;5086183;27;20058;-73
2023/05/04 06:48:42;;;;;;;13.80;6.28;;;;;;;;;;5086974;27;20055;-74
2023/05/04 06:51:08;;;;;;;13.07;6.63;;;;;;;;;;5081305;27;20047;-73
2023/05/04 06:53:34;;;;;;;13.57;6.90;;;;;;;;;;5080009;27;20043;-73
2023/05/04 06:56:01;;;;;;;14.88;6.57;;;;;;;;;;5088934;27;20039;-73
2023/05/04 06:58:27;;;;;;;16.50;6.50;;;;;;;;;;5087280;27;20047;-74
2023/05/04 07:00:53;;;;;;;15.85;6.68;;;;;;;;;;5093156;27;21154;-76
2023/05/04 07:03:19;;;;;;;17.13;6.97;;;;;;;;;;5089868;27;20039;-75
2023/05/04 07:05:47;;;;;;;17.30;7.13;;;;;;;;;;5092840;27;20043;-75
2023/05/04 07:08:13;;;;;;;12.10;6.47;;;;;;;;;;5068654;27;20518;-75
2023/05/04 07:10:40;;;;;;;13.07;6.85;;;;;;;;;;5081044;27;20039;-75
2023/05/04 07:13:06;;;;;;;13.90;6.57;;;;;;;;;;5091104;27;20047;-76
2023/05/04 07:15:35;;;;;;;16.13;7.15;;;;;;;;;;5083324;27;20043;-75
2023/05/04 07:18:01;;;;;;;12.02;6.05;;;;;;;;;;5066522;27;20438;-75
2023/05/04 07:20:27;;;;;;;16.48;7.03;;;;;;;;;;5091544;27;20850;-76
2023/05/04 07:22:57;;;;;;;13.88;7.00;;;;;;;;;;5066486;28;20043;-76
2023/05/04 07:25:26;;;;;;;15.77;6.38;;;;;;;;;;5091076;27;20132;-76
2023/05/04 07:27:52;;;;;;;13.63;6.20;;;;;;;;;;5094805;27;20035;-75
2023/05/04 07:30:19;;;;;;;13.80;6.82;;;;;;;;;;5090469;27;20483;-74
2023/05/04 07:32:45;;;;;;;14.68;6.68;;;;;;;;;;5065899;28;20039;-75
2023/05/04 07:35:11;;;;;;;13.93;6.72;;;;;;;;;;5083534;28;20051;-75
2023/05/04 07:37:37;;;;;;;17.73;6.63;;;;;;;;;;5092686;28;20104;-75
2023/05/04 07:40:04;;;;;;;11.05;6.22;;;;;;;;;;5095048;27;20040;-76
2023/05/04 07:42:31;;;;;;;16.65;6.15;;;;;;;;;;5092934;27;20043;-76
2023/05/04 07:44:57;;;;;;;16.70;7.28;;;;;;;;;;5090405;28;20062;-75
2023/05/04 07:47:23;;;;;;;10.43;6.50;;;;;;;;;;5076196;28;20485;-75
2023/05/04 07:49:50;;;;;;;17.52;7.95;;;;;;;;;;5088889;28;20039;-75
2023/05/04 07:52:16;;;;;;;11.98;6.55;;;;;;;;;;5090730;27;20561;-75
2023/05/04 07:54:42;;;;;;;12.45;6.15;;;;;;;;;;5051598;28;20063;-74
2023/05/04 07:57:09;;;;;;;14.95;6.63;;;;;;;;;;5094135;28;20963;-71
2023/05/04 07:59:35;;;;;;;10.68;6.38;;;;;;;;;;5094811;28;20039;-73
2023/05/04 08:02:01;;;;;;;11.85;6.15;;;;;;;;;;5108440;27;20044;-72
2023/05/04 08:04:27;;;;;;;13.23;6.13;;;;;;;;;;5094009;28;20391;-73
2023/05/04 08:06:53;;;;;;;13.45;6.35;;;;;;;;;;5092204;27;20119;-72
2023/05/04 08:09:19;;;;;;;13.10;6.13;;;;;;;;;;5072359;28;20055;-72
2023/05/04 08:11:45;;;;;;;15.00;6.20;;;;;;;;;;5092724;27;20055;-72
2023/05/04 08:14:12;;;;;;;12.27;6.40;;;;;;;;;;5094114;27;20040;-72
2023/05/04 08:16:41;;;;;;;11.13;6.28;;;;;;;;;;5086056;28;20040;-73
2023/05/04 08:19:07;;;;;;;13.30;6.43;;;;;;;;;;5094623;27;20531;-71
2023/05/04 08:21:33;;;;;;;12.43;5.93;;;;;;;;;;5091368;27;20117;-71
2023/05/04 08:23:59;;;;;;;12.10;6.40;;;;;;;;;;5090230;27;20129;-79
2023/05/04 08:26:25;;;;;;;11.70;6.07;;;;;;;;;;5096687;27;20355;-80
2023/05/04 08:28:52;;;;;;;13.23;5.75;;;;;;;;;;5093801;27;20043;-80
2023/05/04 08:31:18;;;;;;;14.13;5.93;;;;;;;;;;5097507;27;20039;-72
2023/05/04 08:33:47;;;;;;;12.02;5.78;;;;;;;;;;5092578;27;20122;-73
2023/05/04 08:36:13;;;;;;;15.02;6.95;;;;;;;;;;5092564;27;20032;-72
2023/05/04 08:38:39;;;;;;;12.68;6.43;;;;;;;;;;5094215;27;20038;-71
2023/05/04 08:41:06;;;;;;;11.90;6.25;;;;;;;;;;5093993;27;20040;-73
2023/05/04 08:43:36;;;;;;;10.93;6.57;;;;;;;;;;5093340;27;20046;-71
2023/05/04 08:46:05;;;;;;;17.27;7.50;;;;;;;;;;5068354;27;20048;-72
2023/05/04 08:48:35;;;;;;;17.63;7.03;;;;;;;;;;5094574;27;20526;-73
2023/05/04 08:51:05;;;;;;;18.25;6.10;;;;;;;;;;5095041;27;20040;-73
2023/05/04 08:53:32;;;;;;;11.32;7.18;;;;;;;;;;5095758;27;20051;-72
2023/05/04 08:56:02;;;;;;;13.05;7.10;;;;;;;;;;5094686;27;20036;-73
2023/05/04 08:58:29;;;;;;;12.90;6.20;;;;;;;;;;5091965;27;20047;-73
2023/05/04 09:00:56;;;;;;;14.07;7.13;;;;;;;;;;5101554;27;20040;-72
2023/05/04 09:03:22;;;;;;;11.73;6.70;;;;;;;;;;5080803;27;20126;-72
2023/05/04 09:05:49;;;;;;;13.18;6.25;;;;;;;;;;5092712;27;20035;-72
2023/05/04 09:08:16;;;;;;;13.45;6.75;;;;;;;;;;5078125;27;20038;-72
2023/05/04 09:10:42;;;;;;;11.68;6.50;;;;;;;;;;5080076;27;20054;-72
2023/05/04 09:13:08;;;;;;;10.55;6.53;;;;;;;;;;5093498;27;20066;-72
2023/05/04 09:15:34;;;;;;;9.65;6.00;;;;;;;;;;5093926;27;20039;-72
2023/05/04 09:18:04;;;;;;;16.15;5.88;;;;;;;;;;5094057;27;20433;-72
2023/05/04 09:20:31;;;;;;;12.88;6.53;;;;;;;;;;5078795;27;20043;-72
2023/05/04 09:23:16;;;;;;;12.93;6.60;;;;;;;;;;5094918;27;20571;-72
2023/05/04 09:25:50;;;;;;;14.38;6.93;;;;;;;;;;5085627;27;20043;-73
2023/05/04 09:28:17;;;;;;;11.77;6.13;;;;;;;;;;5092838;27;20049;-73
2023/05/04 09:30:43;;;;;;;12.80;6.03;;;;;;;;;;5063962;27;20130;-72
2023/05/04 09:33:09;;;;;;;9.75;6.20;;;;;;;;;;5098137;27;20047;-73
2023/05/04 09:35:40;;;;;;;8.35;5.88;;;;;;;;;;5084427;27;20050;-73
2023/05/04 09:38:06;;;;;;;9.68;6.15;;;;;;;;;;5092367;27;20051;-73
2023/05/04 09:40:35;;;;;;;15.48;5.63;;;;;;;;;;5093718;27;20059;-72
2023/05/04 09:43:01;;;;;;;20.63;6.53;;;;;;;;;;5093735;27;20173;-72
2023/05/04 09:45:38;;;;;;;9.00;5.13;;;;;;;;;;5093829;27;20329;-73
2023/05/04 09:48:18;;;;;;;9.15;5.00;;;;;;;;;;5092324;27;20758;-73
2023/05/04 09:51:05;;;;;;;8.05;5.00;;;;;;;;;;5094943;27;20070;-73
2023/05/04 09:53:32;;;;;;;11.43;5.70;;;;;;;;;;5093053;27;20050;-73
2023/05/04 09:56:09;;;;;;;9.82;5.93;;;;;;;;;;5068938;27;20047;-73
2023/05/04 09:58:36;;;;;;;11.65;6.10;;;;;;;;;;5093826;27;20043;-73
2023/05/04 10:01:03;;;;;;;10.38;5.63;;;;;;;;;;5093477;27;20050;-72
2023/05/04 10:03:30;;;;;;;14.63;6.03;;;;;;;;;;5066408;27;20047;-72
2023/05/04 10:05:58;;;;;;;14.13;5.32;;;;;;;;;;5092733;27;20419;-72
2023/05/04 10:08:25;;;;;;;14.23;5.22;;;;;;;;;;5094050;27;20607;-71
2023/05/04 10:10:52;;;;;;;7.88;4.97;;;;;;;;;;5093525;27;20047;-72
2023/05/04 10:13:18;;;;;;;7.05;4.70;;;;;;;;;;5087755;27;20071;-72
2023/05/04 10:16:04;;;;;;;10.80;5.20;;;;;;;;;;5090384;27;20036;-73
2023/05/04 10:18:56;;;;;;;7.53;4.65;;;;;;;;;;5049853;27;20079;-74
2023/05/04 10:21:29;;;;;;;10.00;5.18;;;;;;;;;;5059714;27;20051;-73
2023/05/04 10:23:59;;;;;;;18.73;6.05;;;;;;;;;;5093406;27;20051;-72
2023/05/04 10:26:31;;;;;;;9.82;4.85;;;;;;;;;;5093364;27;20066;-73
2023/05/04 10:29:01;;;;;;;9.75;5.15;;;;;;;;;;5095909;27;20047;-73
2023/05/04 10:31:36;;;;;;;9.15;5.55;;;;;;;;;;5076986;27;20648;-72
2023/05/04 10:34:02;;;;;;;9.75;4.60;;;;;;;;;;5088336;27;20109;-72
2023/05/04 10:36:38;;;;;;;9.75;4.78;;;;;;;;;;5094962;27;20036;-72
2023/05/04 10:39:05;;;;;;;10.35;4.80;;;;;;;;;;5093626;27;20126;-72
2023/05/04 10:41:31;;;;;;;12.18;5.05;;;;;;;;;;5094465;27;20047;-72
2023/05/04 10:44:04;;;;;;;9.90;4.68;;;;;;;;;;5092445;27;20050;-72
2023/05/04 10:46:30;;;;;;;10.25;5.07;;;;;;;;;;5094055;27;20047;-71
2023/05/04 10:48:56;;;;;;;10.70;4.72;;;;;;;;;;5093342;27;20051;-72
2023/05/04 10:51:23;;;;;;;13.73;5.25;;;;;;;;;;5091491;27;20077;-72
2023/05/04 10:53:50;;;;;;;10.75;5.32;;;;;;;;;;5091888;27;20089;-72
2023/05/04 10:56:20;;;;;;;12.07;5.03;;;;;;;;;;5077851;28;20047;-72
2023/05/04 10:58:47;;;;;;;8.15;4.72;;;;;;;;;;5092380;27;20047;-73
2023/05/04 11:01:13;;;;;;;10.90;4.55;;;;;;;;;;5077508;27;20131;-73
2023/05/04 11:03:43;;;;;;;8.00;4.45;;;;;;;;;;5092960;27;20128;-73
2023/05/04 11:06:16;;;;;;;10.52;4.20;;;;;;;;;;5093099;27;20039;-73
2023/05/04 11:08:42;;;;;;;13.23;5.22;;;;;;;;;;5092192;27;21706;-73
2023/05/04 11:11:08;;;;;;;10.02;4.25;;;;;;;;;;5091961;27;20514;-72
2023/05/04 11:13:35;;;;;;;10.18;4.38;;;;;;;;;;5091140;27;20128;-72
2023/05/04 11:16:01;;;;;;;10.07;4.40;;;;;;;;;;5093568;27;20114;-73
2023/05/04 11:18:33;;;;;;;11.98;4.93;;;;;;;;;;5089493;27;20180;-74
2023/05/04 11:20:59;;;;;;;14.77;6.05;;;;;;;;;;5093350;27;20052;-76
2023/05/04 11:23:27;;;;;;;11.15;4.57;;;;;;;;;;5091946;27;20090;-75
2023/05/04 11:25:53;;;;;;;10.77;4.30;;;;;;;;;;5091194;27;20039;-75
2023/05/04 11:28:20;;;;;;;17.38;7.20;;;;;;;;;;5094452;27;20118;-73
2023/05/04 11:30:46;;;;;;;35.70;23.55;;;;;;;;;;5080236;27;20044;-75
2023/05/04 11:33:14;;;;;;;9.60;5.03;;;;;;;;;;5091545;27;20043;-73
2023/05/04 11:35:44;;;;;;;8.15;4.82;;;;;;;;;;5068061;28;20109;-75
2023/05/04 11:38:12;;;;;;;9.27;3.85;;;;;;;;;;5085921;27;20051;-75
2023/05/04 11:40:40;;;;;;;8.82;4.22;;;;;;;;;;5087833;27;20493;-75
2023/05/04 11:43:08;;;;;;;10.60;4.43;;;;;;;;;;5083623;28;20085;-75
2023/05/04 11:45:35;;;;;;;14.65;5.00;;;;;;;;;;5084544;28;20606;-74
2023/05/04 11:48:01;;;;;;;13.27;4.50;;;;;;;;;;5084920;28;20043;-75
2023/05/04 11:50:28;;;;;;;8.77;5.07;;;;;;;;;;5087204;27;20058;-74
2023/05/04 11:53:10;;;;;;;12.35;4.80;;;;;;;;;;5085250;28;20053;-75
2023/05/04 11:55:37;;;;;;;9.38;4.78;;;;;;;;;;5086161;27;20109;-74
2023/05/04 11:58:04;;;;;;;11.65;4.68;;;;;;;;;;5090132;28;20047;-75
2023/05/04 12:00:38;;;;;;;10.50;5.07;;;;;;;;;;5087024;27;20044;-75
2023/05/04 12:03:05;;;;;;;9.55;4.53;;;;;;;;;;5092958;27;20071;-74
2023/05/04 12:05:32;;;;;;;8.85;4.85;;;;;;;;;;5096686;27;20155;-75
2023/05/04 12:07:58;;;;;;;8.30;4.72;;;;;;;;;;5097387;27;20565;-74
2023/05/04 12:10:25;;;;;;;9.75;4.53;;;;;;;;;;5097439;27;20120;-75
2023/05/04 12:12:51;;;;;;;12.32;5.30;;;;;;;;;;5095488;27;20044;-74
2023/05/04 12:15:27;;;;;;;10.55;5.20;;;;;;;;;;5097188;27;20047;-74
2023/05/04 12:17:53;;;;;;;8.45;4.47;;;;;;;;;;5093019;27;20129;-73
2023/05/04 12:20:24;;;;;;;9.82;4.22;;;;;;;;;;5087536;27;20093;-74
2023/05/04 12:22:50;;;;;;;10.65;4.72;;;;;;;;;;5099419;27;20283;-74
2023/05/04 12:25:19;;;;;;;9.15;4.40;;;;;;;;;;5081193;27;20156;-75
2023/05/04 12:27:45;;;;;;;8.77;4.78;;;;;;;;;;5095851;27;20044;-74
2023/05/04 12:30:13;;;;;;;10.85;5.00;;;;;;;;;;5093173;27;20050;-74
2023/05/04 12:32:39;;;;;;;7.43;4.72;;;;;;;;;;5098490;27;20118;-74
2023/05/04 12:35:05;;;;;;;13.23;4.30;;;;;;;;;;5094981;27;20054;-73
2023/05/04 12:37:31;;;;;;;8.88;4.68;;;;;;;;;;5097099;27;20042;-74
2023/05/04 12:39:57;;;;;;;12.43;5.25;;;;;;;;;;5096389;27;20567;-74
2023/05/04 12:42:23;;;;;;;14.00;5.22;;;;;;;;;;5095561;27;20050;-74
2023/05/04 12:44:49;;;;;;;9.02;4.50;;;;;;;;;;5094178;27;20051;-74
2023/05/04 12:47:16;;;;;;;6.30;4.47;;;;;;;;;;5089738;27;20130;-75
2023/05/04 12:49:42;;;;;;;8.00;5.13;;;;;;;;;;5086252;27;20107;-74
2023/05/04 12:52:09;;;;;;;10.10;4.30;;;;;;;;;;5094377;27;20495;-74
2023/05/04 12:54:35;;;;;;;12.02;5.28;;;;;;;;;;5094334;27;20447;-75
2023/05/04 12:57:02;;;;;;;8.00;4.68;;;;;;;;;;5094043;27;20956;-74
2023/05/04 12:59:28;;;;;;;10.48;4.15;;;;;;;;;;5094904;27;20089;-74
2023/05/04 13:01:54;;;;;;;9.77;4.55;;;;;;;;;;5094609;27;20085;-74
2023/05/04 13:04:20;;;;;;;8.50;4.57;;;;;;;;;;5092978;27;20047;-74
2023/05/04 13:06:47;;;;;;;7.63;4.68;;;;;;;;;;5097093;27;20046;-74
2023/05/04 13:09:13;;;;;;;8.80;4.25;;;;;;;;;;5085363;27;20667;-75
2023/05/04 13:11:39;;;;;;;7.60;4.45;;;;;;;;;;5097239;27;20068;-73
2023/05/04 13:14:06;;;;;;;9.15;4.43;;;;;;;;;;5096945;27;20504;-75
2023/05/04 13:16:32;;;;;;;9.70;4.38;;;;;;;;;;5102567;27;20043;-82
2023/05/04 13:18:58;;;;;;;11.45;4.65;;;;;;;;;;5100142;27;20047;-75
2023/05/04 13:21:24;;;;;;;7.28;4.30;;;;;;;;;;5094673;27;20043;-74
2023/05/04 13:23:51;;;;;;;9.10;4.53;;;;;;;;;;5086939;27;20597;-74
2023/05/04 13:26:17;;;;;;;9.65;4.50;;;;;;;;;;5086087;27;20123;-75
2023/05/04 13:28:43;;;;;;;11.07;5.00;;;;;;;;;;5091814;27;20039;-75
2023/05/04 13:31:09;;;;;;;6.75;4.20;;;;;;;;;;5074333;27;20105;-75
2023/05/04 13:33:38;;;;;;;8.35;4.78;;;;;;;;;;5066675;27;20127;-73
2023/05/04 13:36:05;;;;;;;8.25;4.30;;;;;;;;;;5091801;27;20044;-74
2023/05/04 13:38:32;;;;;;;7.97;4.10;;;;;;;;;;5091403;27;20123;-75
2023/05/04 13:40:58;;;;;;;7.60;4.40;;;;;;;;;;5091674;27;20031;-74
2023/05/04 13:43:24;;;;;;;9.10;4.22;;;;;;;;;;5083182;27;20043;-71
2023/05/04 13:45:51;;;;;;;6.47;3.63;;;;;;;;;;5093129;27;20042;-74
2023/05/04 13:48:19;;;;;;;6.80;3.60;;;;;;;;;;5093576;27;20094;-83
2023/05/04 13:50:46;;;;;;;6.90;3.65;;;;;;;;;;5098055;27;20089;-75
2023/05/04 13:53:12;;;;;;;6.20;3.92;;;;;;;;;;5094325;27;20241;-84
2023/05/04 13:55:38;;;;;;;9.98;3.63;;;;;;;;;;5099108;27;20099;-83
2023/05/04 13:58:04;;;;;;;9.18;3.97;;;;;;;;;;5098376;27;20052;-84
2023/05/04 14:00:30;;;;;;;8.23;3.15;;;;;;;;;;5096780;27;20414;-83
2023/05/04 14:02:57;;;;;;;5.50;3.13;;;;;;;;;;5100021;27;20055;-84
2023/05/04 14:05:23;;;;;;;6.43;3.60;;;;;;;;;;5099085;27;20876;-83
2023/05/04 14:07:51;;;;;;;8.25;3.67;;;;;;;;;;5077188;27;20047;-75
2023/05/04 14:10:17;;;;;;;12.70;4.45;;;;;;;;;;5092677;27;20054;-83
2023/05/04 14:12:43;;;;;;;8.43;3.65;;;;;;;;;;5093351;27;20043;-74
2023/05/04 14:15:09;;;;;;;11.30;3.30;;;;;;;;;;5090018;27;20044;-74
2023/05/04 14:17:38;;;;;;;6.90;2.88;;;;;;;;;;5090720;27;20114;-74
2023/05/04 14:20:04;;;;;;;7.72;2.78;;;;;;;;;;5100203;27;20156;-84
2023/05/04 14:22:31;;;;;;;7.45;3.05;;;;;;;;;;5100670;27;20062;-83
2023/05/04 14:24:57;;;;;;;7.55;3.00;;;;;;;;;;5103277;27;20163;-83
2023/05/04 14:27:23;;;;;;;6.35;3.15;;;;;;;;;;5083193;27;20750;-82
2023/05/04 14:29:49;;;;;;;10.00;3.67;;;;;;;;;;5097196;27;20035;-83
2023/05/04 14:32:15;;;;;;;7.30;3.10;;;;;;;;;;5098340;27;20040;-83